sensor_id;sensor_type;location;lat;lon;timestamp;pressure;altitude;pressure_sealevel;temperature;humidity
24230;BME280;12362;50.004;8.006;2023-01-26T00:01:14;101424.81;;;0.90;100.00
24230;BME280;12362;50.004;8.006;2023-01-26T00:03:40;101418.81;;;0.82;100.00
24230;BME280;12362;50.004;8.006;2023-01-26T00:06:08;101408.56;;;0.79;100.00
24230;BME280;12362;50.004;8.006;2023-01-26T00:08:38;101415.38;;;0.77;100.00
24230;BME280;12362;50.004;8.006;2023-01-26T00:11:05;101411.13;;;0.76;100.00
24230;BME280;12362;50.004;8.006;2023-01-26T00:13:32;101415.41;;;0.80;100.00
24230;BME280;12362;50.004;8.006;2023-01-26T00:15:57;101417.16;;;0.90;100.00
24230;BME280;12362;50.004;8.006;2023-01-26T00:18:23;101407.84;;;0.98;100.00
24230;BME280;12362;50.004;8.006;2023-01-26T00:20:54;101416.41;;;1.04;100.00
24230;BME280;12362;50.004;8.006;2023-01-26T00:23:19;101414.72;;;1.08;100.00
24230;BME280;12362;50.004;8.006;2023-01-26T00:25:45;101415.56;;;1.08;100.00
24230;BME280;12362;50.004;8.006;2023-01-26T00:28:10;101415.47;;;0.90;100.00
24230;BME280;12362;50.004;8.006;2023-01-26T00:30:36;101408.63;;;0.85;100.00
24230;BME280;12362;50.004;8.006;2023-01-26T00:33:01;101405.16;;;0.76;100.00
24230;BME280;12362;50.004;8.006;2023-01-26T00:35:26;101400.91;;;0.79;100.00
24230;BME280;12362;50.004;8.006;2023-01-26T00:37:52;101402.59;;;0.74;100.00
24230;BME280;12362;50.004;8.006;2023-01-26T00:40:19;101404.31;;;0.77;100.00
24230;BME280;12362;50.004;8.006;2023-01-26T00:42:44;101399.22;;;0.81;100.00
24230;BME280;12362;50.004;8.006;2023-01-26T00:45:10;101394.09;;;0.80;100.00
24230;BME280;12362;50.004;8.006;2023-01-26T00:47:36;101399.19;;;0.75;100.00
24230;BME280;12362;50.004;8.006;2023-01-26T00:50:03;101406.00;;;0.73;100.00
24230;BME280;12362;50.004;8.006;2023-01-26T00:52:29;101398.34;;;0.78;100.00
24230;BME280;12362;50.004;8.006;2023-01-26T00:54:55;101391.56;;;0.81;100.00
24230;BME280;12362;50.004;8.006;2023-01-26T00:57:21;101400.06;;;0.79;100.00
24230;BME280;12362;50.004;8.006;2023-01-26T00:59:53;101401.78;;;0.81;100.00
24230;BME280;12362;50.004;8.006;2023-01-26T01:02:18;101403.53;;;0.91;100.00
24230;BME280;12362;50.004;8.006;2023-01-26T01:04:44;101402.75;;;0.98;100.00
24230;BME280;12362;50.004;8.006;2023-01-26T01:07:10;101407.84;;;0.98;100.00
24230;BME280;12362;50.004;8.006;2023-01-26T01:09:35;101406.13;;;0.97;100.00
24230;BME280;12362;50.004;8.006;2023-01-26T01:12:01;101413.78;;;0.94;100.00
24230;BME280;12362;50.004;8.006;2023-01-26T01:14:26;101404.44;;;0.96;100.00
24230;BME280;12362;50.004;8.006;2023-01-26T01:16:52;101401.00;;;0.92;100.00
24230;BME280;12362;50.004;8.006;2023-01-26T01:19:18;101398.34;;;0.78;100.00
24230;BME280;12362;50.004;8.006;2023-01-26T01:21:44;101390.66;;;0.75;100.00
24230;BME280;12362;50.004;8.006;2023-01-26T01:24:12;101401.75;;;0.77;100.00
24230;BME280;12362;50.004;8.006;2023-01-26T01:26:38;101400.91;;;0.76;100.00
24230;BME280;12362;50.004;8.006;2023-01-26T01:29:13;101392.41;;;0.80;100.00
24230;BME280;12362;50.004;8.006;2023-01-26T01:31:39;101394.94;;;0.79;100.00
24230;BME280;12362;50.004;8.006;2023-01-26T01:34:05;101399.16;;;0.72;100.00
24230;BME280;12362;50.004;8.006;2023-01-26T01:36:31;101405.13;;;0.70;100.00
24230;BME280;12362;50.004;8.006;2023-01-26T01:38:57;101402.56;;;0.71;100.00
24230;BME280;12362;50.004;8.006;2023-01-26T01:41:23;101400.00;;;0.73;100.00
24230;BME280;12362;50.004;8.006;2023-01-26T01:43:50;101400.06;;;0.79;100.00
24230;BME280;12362;50.004;8.006;2023-01-26T01:46:23;101390.69;;;0.76;100.00
24230;BME280;12362;50.004;8.006;2023-01-26T01:48:59;101390.69;;;0.78;100.00
24230;BME280;12362;50.004;8.006;2023-01-26T01:54:35;101388.06;;;0.72;100.00
24230;BME280;12362;50.004;8.006;2023-01-26T01:57:06;101389.81;;;0.77;100.00
24230;BME280;12362;50.004;8.006;2023-01-26T01:59:45;101386.41;;;0.71;100.00
24230;BME280;12362;50.004;8.006;2023-01-26T02:02:14;101382.94;;;0.66;100.00
24230;BME280;12362;50.004;8.006;2023-01-26T02:04:40;101388.03;;;0.67;100.00
24230;BME280;12362;50.004;8.006;2023-01-26T02:07:06;101388.94;;;0.72;100.00
24230;BME280;12362;50.004;8.006;2023-01-26T02:09:34;101379.63;;;0.80;100.00
24230;BME280;12362;50.004;8.006;2023-01-26T02:12:28;101375.34;;;0.76;100.00
24230;BME280;12362;50.004;8.006;2023-01-26T02:14:55;101363.44;;;0.81;100.00
24230;BME280;12362;50.004;8.006;2023-01-26T02:17:22;101375.38;;;0.82;100.00
24230;BME280;12362;50.004;8.006;2023-01-26T02:20:12;101367.72;;;0.82;100.00
24230;BME280;12362;50.004;8.006;2023-01-26T02:25:27;101354.94;;;0.82;100.00
24230;BME280;12362;50.004;8.006;2023-01-26T02:28:11;101360.03;;;0.78;100.00
24230;BME280;12362;50.004;8.006;2023-01-26T02:30:37;101360.03;;;0.84;100.00
24230;BME280;12362;50.004;8.006;2023-01-26T02:33:03;101361.72;;;0.80;100.00
24230;BME280;12362;50.004;8.006;2023-01-26T02:35:28;101358.34;;;0.83;100.00
24230;BME280;12362;50.004;8.006;2023-01-26T02:37:54;101344.72;;;0.81;100.00
24230;BME280;12362;50.004;8.006;2023-01-26T02:40:45;101340.47;;;0.83;100.00
24230;BME280;12362;50.004;8.006;2023-01-26T02:43:14;101338.78;;;0.89;100.00
24230;BME280;12362;50.004;8.006;2023-01-26T02:45:40;101344.75;;;0.89;100.00
24230;BME280;12362;50.004;8.006;2023-01-26T02:48:06;101346.47;;;0.92;100.00
24230;BME280;12362;50.004;8.006;2023-01-26T02:50:33;101337.97;;;0.97;100.00
24230;BME280;12362;50.004;8.006;2023-01-26T02:53:00;101341.38;;;0.96;100.00
24230;BME280;12362;50.004;8.006;2023-01-26T02:55:25;101337.16;;;1.01;100.00
24230;BME280;12362;50.004;8.006;2023-01-26T03:00:22;101332.00;;;0.92;100.00
24230;BME280;12362;50.004;8.006;2023-01-26T03:02:51;101331.94;;;0.84;100.00
24230;BME280;12362;50.004;8.006;2023-01-26T03:05:18;101335.34;;;0.83;100.00
24230;BME280;12362;50.004;8.006;2023-01-26T03:07:44;101326.84;;;0.87;100.00
24230;BME280;12362;50.004;8.006;2023-01-26T03:10:10;101320.84;;;0.85;100.00
24230;BME280;12362;50.004;8.006;2023-01-26T03:12:36;101312.34;;;0.86;100.00
24230;BME280;12362;50.004;8.006;2023-01-26T03:15:02;101315.75;;;0.83;100.00
24230;BME280;12362;50.004;8.006;2023-01-26T03:17:47;101297.81;;;0.77;100.00
24230;BME280;12362;50.004;8.006;2023-01-26T03:20:12;101302.97;;;0.85;100.00
24230;BME280;12362;50.004;8.006;2023-01-26T03:22:56;101302.16;;;0.88;100.00
24230;BME280;12362;50.004;8.006;2023-01-26T03:25:41;101312.41;;;0.91;100.00
24230;BME280;12362;50.004;8.006;2023-01-26T03:28:39;101310.66;;;0.89;100.00
24230;BME280;12362;50.004;8.006;2023-01-26T03:31:06;101297.03;;;0.90;100.00
24230;BME280;12362;50.004;8.006;2023-01-26T03:33:31;101305.56;;;0.90;100.00
24230;BME280;12362;50.004;8.006;2023-01-26T03:35:58;101297.00;;;0.86;100.00
24230;BME280;12362;50.004;8.006;2023-01-26T03:38:23;101294.47;;;0.83;100.00
24230;BME280;12362;50.004;8.006;2023-01-26T03:40:56;101296.16;;;0.81;100.00
24230;BME280;12362;50.004;8.006;2023-01-26T03:43:40;101288.47;;;0.78;100.00
24230;BME280;12362;50.004;8.006;2023-01-26T03:46:24;101284.22;;;0.86;100.00
24230;BME280;12362;50.004;8.006;2023-01-26T03:49:10;101290.22;;;0.88;100.00
24230;BME280;12362;50.004;8.006;2023-01-26T03:51:54;101291.09;;;0.89;100.00
24230;BME280;12362;50.004;8.006;2023-01-26T03:54:38;101290.22;;;0.86;100.00
24230;BME280;12362;50.004;8.006;2023-01-26T03:57:23;101282.50;;;0.74;100.00
24230;BME280;12362;50.004;8.006;2023-01-26T03:59:48;101281.66;;;0.81;100.00
24230;BME280;12362;50.004;8.006;2023-01-26T04:02:18;101285.94;;;0.82;100.00
24230;BME280;12362;50.004;8.006;2023-01-26T04:05:03;101277.44;;;0.82;100.00
24230;BME280;12362;50.004;8.006;2023-01-26T04:07:52;101273.19;;;0.85;100.00
24230;BME280;12362;50.004;8.006;2023-01-26T04:10:36;101266.34;;;0.90;100.00
24230;BME280;12362;50.004;8.006;2023-01-26T04:13:03;101261.25;;;0.90;100.00
24230;BME280;12362;50.004;8.006;2023-01-26T04:15:52;101257.84;;;0.87;100.00
24230;BME280;12362;50.004;8.006;2023-01-26T04:18:36;101260.41;;;0.88;100.00
24230;BME280;12362;50.004;8.006;2023-01-26T04:21:20;101254.44;;;0.88;100.00
24230;BME280;12362;50.004;8.006;2023-01-26T04:23:59;101253.59;;;0.83;100.00
24230;BME280;12362;50.004;8.006;2023-01-26T04:26:27;101250.13;;;0.79;100.00
24230;BME280;12362;50.004;8.006;2023-01-26T04:32:37;101251.03;;;0.84;100.00
24230;BME280;12362;50.004;8.006;2023-01-26T04:35:04;101251.84;;;0.79;100.00
24230;BME280;12362;50.004;8.006;2023-01-26T04:37:32;101251.00;;;0.81;100.00
24230;BME280;12362;50.004;8.006;2023-01-26T04:39:58;101249.31;;;0.89;100.00
24230;BME280;12362;50.004;8.006;2023-01-26T04:42:24;101249.31;;;0.88;100.00
24230;BME280;12362;50.004;8.006;2023-01-26T04:44:51;101243.34;;;0.86;100.00
24230;BME280;12362;50.004;8.006;2023-01-26T04:47:17;101248.44;;;0.81;100.00
24230;BME280;12362;50.004;8.006;2023-01-26T04:49:43;101245.06;;;0.85;100.00
24230;BME280;12362;50.004;8.006;2023-01-26T04:52:08;101248.47;;;0.88;100.00
24230;BME280;12362;50.004;8.006;2023-01-26T04:54:34;101248.50;;;0.94;100.00
24230;BME280;12362;50.004;8.006;2023-01-26T04:57:00;101249.38;;;0.99;100.00
24230;BME280;12362;50.004;8.006;2023-01-26T04:59:25;101242.53;;;0.92;100.00
24230;BME280;12362;50.004;8.006;2023-01-26T05:01:56;101242.53;;;0.92;100.00
24230;BME280;12362;50.004;8.006;2023-01-26T05:04:24;101235.69;;;0.90;100.00
24230;BME280;12362;50.004;8.006;2023-01-26T05:06:50;101234.88;;;0.94;100.00
24230;BME280;12362;50.004;8.006;2023-01-26T05:09:15;101245.91;;;0.86;100.00
24230;BME280;12362;50.004;8.006;2023-01-26T05:11:43;101237.34;;;0.79;100.00
24230;BME280;12362;50.004;8.006;2023-01-26T05:14:27;101232.25;;;0.73;100.00
24230;BME280;12362;50.004;8.006;2023-01-26T05:17:09;101239.03;;;0.73;100.00
24230;BME280;12362;50.004;8.006;2023-01-26T05:19:58;101239.06;;;0.79;100.00
24230;BME280;12362;50.004;8.006;2023-01-26T05:22:36;101244.16;;;0.76;100.00
24230;BME280;12362;50.004;8.006;2023-01-26T05:25:22;101249.31;;;0.83;100.00
24230;BME280;12362;50.004;8.006;2023-01-26T05:28:10;101250.13;;;0.79;100.00
24230;BME280;12362;50.004;8.006;2023-01-26T05:30:36;101241.59;;;0.76;100.00
24230;BME280;12362;50.004;8.006;2023-01-26T05:33:07;101240.75;;;0.72;100.00
24230;BME280;12362;50.004;8.006;2023-01-26T05:35:34;101243.34;;;0.80;100.00
24230;BME280;12362;50.004;8.006;2023-01-26T05:38:01;101245.91;;;0.80;100.00
24230;BME280;12362;50.004;8.006;2023-01-26T05:40:30;101248.47;;;0.83;100.00
24230;BME280;12362;50.004;8.006;2023-01-26T05:42:56;101247.59;;;0.82;100.00
24230;BME280;12362;50.004;8.006;2023-01-26T05:45:48;101247.59;;;0.82;100.00
24230;BME280;12362;50.004;8.006;2023-01-26T05:48:14;101249.31;;;0.82;100.00
24230;BME280;12362;50.004;8.006;2023-01-26T05:50:40;101255.25;;;0.84;100.00
24230;BME280;12362;50.004;8.006;2023-01-26T05:53:10;101256.06;;;0.74;100.00
24230;BME280;12362;50.004;8.006;2023-01-26T05:55:36;101245.88;;;0.77;100.00
24230;BME280;12362;50.004;8.006;2023-01-26T05:58:02;101240.75;;;0.72;100.00
24230;BME280;12362;50.004;8.006;2023-01-26T06:00:28;101239.88;;;0.64;100.00
24230;BME280;12362;50.004;8.006;2023-01-26T06:03:01;101244.09;;;0.53;100.00
24230;BME280;12362;50.004;8.006;2023-01-26T06:05:27;101252.56;;;0.49;100.00
24230;BME280;12362;50.004;8.006;2023-01-26T06:07:58;101246.59;;;0.49;100.00
24230;BME280;12362;50.004;8.006;2023-01-26T06:10:28;101247.44;;;0.48;100.00
24230;BME280;12362;50.004;8.006;2023-01-26T06:13:14;101250.00;;;0.49;100.00
24230;BME280;12362;50.004;8.006;2023-01-26T06:15:45;101246.56;;;0.41;100.00
24230;BME280;12362;50.004;8.006;2023-01-26T06:18:11;101254.22;;;0.40;100.00
24230;BME280;12362;50.004;8.006;2023-01-26T06:20:38;101256.72;;;0.31;100.00
24230;BME280;12362;50.004;8.006;2023-01-26T06:23:04;101256.69;;;0.28;100.00
24230;BME280;12362;50.004;8.006;2023-01-26T06:25:37;101264.31;;;0.22;100.00
24230;BME280;12362;50.004;8.006;2023-01-26T06:28:05;101252.41;;;0.24;100.00
24230;BME280;12362;50.004;8.006;2023-01-26T06:30:31;101254.94;;;0.19;100.00
24230;BME280;12362;50.004;8.006;2023-01-26T06:33:01;101259.22;;;0.23;100.00
24230;BME280;12362;50.004;8.006;2023-01-26T06:35:28;101266.91;;;0.26;100.00
24230;BME280;12362;50.004;8.006;2023-01-26T06:37:57;101263.50;;;0.30;100.00
24230;BME280;12362;50.004;8.006;2023-01-26T06:40:23;101263.56;;;0.36;100.00
24230;BME280;12362;50.004;8.006;2023-01-26T06:42:49;101265.22;;;0.28;100.00
24230;BME280;12362;50.004;8.006;2023-01-26T06:45:17;101275.44;;;0.28;100.00
24230;BME280;12362;50.004;8.006;2023-01-26T06:47:46;101270.28;;;0.27;100.00
24230;BME280;12362;50.004;8.006;2023-01-26T06:50:14;101274.59;;;0.29;100.00
24230;BME280;12362;50.004;8.006;2023-01-26T06:52:41;101274.59;;;0.31;100.00
24230;BME280;12362;50.004;8.006;2023-01-26T06:55:34;101283.94;;;0.27;100.00
24230;BME280;12362;50.004;8.006;2023-01-26T06:58:19;101284.75;;;0.23;100.00
24230;BME280;12362;50.004;8.006;2023-01-26T07:01:03;101287.28;;;0.25;100.00
24230;BME280;12362;50.004;8.006;2023-01-26T07:03:32;101292.34;;;0.14;100.00
24230;BME280;12362;50.004;8.006;2023-01-26T07:05:58;101298.25;;;0.10;100.00
24230;BME280;12362;50.004;8.006;2023-01-26T07:08:23;101298.34;;;0.21;100.00
24230;BME280;12362;50.004;8.006;2023-01-26T07:10:49;101311.13;;;0.24;100.00
24230;BME280;12362;50.004;8.006;2023-01-26T07:13:14;101305.25;;;0.34;100.00
24230;BME280;12362;50.004;8.006;2023-01-26T07:15:40;101310.38;;;0.38;100.00
24230;BME280;12362;50.004;8.006;2023-01-26T07:18:06;101315.47;;;0.37;100.00
24230;BME280;12362;50.004;8.006;2023-01-26T07:20:31;101313.78;;;0.39;100.00
24230;BME280;12362;50.004;8.006;2023-01-26T07:23:01;101315.50;;;0.40;100.00
24230;BME280;12362;50.004;8.006;2023-01-26T07:25:27;101313.81;;;0.43;100.00
24230;BME280;12362;50.004;8.006;2023-01-26T07:27:57;101306.06;;;0.31;100.00
24230;BME280;12362;50.004;8.006;2023-01-26T07:30:23;101318.03;;;0.37;100.00
24230;BME280;12362;50.004;8.006;2023-01-26T07:32:49;101311.13;;;0.24;100.00
24230;BME280;12362;50.004;8.006;2023-01-26T07:35:14;101315.34;;;0.19;100.00
24230;BME280;12362;50.004;8.006;2023-01-26T07:37:40;101319.59;;;0.18;100.00
24230;BME280;12362;50.004;8.006;2023-01-26T07:40:06;101322.19;;;0.26;100.00
24230;BME280;12362;50.004;8.006;2023-01-26T07:42:32;101319.69;;;0.29;100.00
24230;BME280;12362;50.004;8.006;2023-01-26T07:45:16;101327.34;;;0.29;100.00
24230;BME280;12362;50.004;8.006;2023-01-26T07:47:42;101330.72;;;0.28;100.00
24230;BME280;12362;50.004;8.006;2023-01-26T07:50:09;101330.75;;;0.32;100.00
24230;BME280;12362;50.004;8.006;2023-01-26T07:52:35;101324.84;;;0.35;100.00
24230;BME280;12362;50.004;8.006;2023-01-26T07:55:01;101335.97;;;0.46;100.00
24230;BME280;12362;50.004;8.006;2023-01-26T07:57:27;101333.38;;;0.40;100.00
24230;BME280;12362;50.004;8.006;2023-01-26T07:59:53;101327.41;;;0.42;100.00
24230;BME280;12362;50.004;8.006;2023-01-26T08:02:20;101330.00;;;0.44;100.00
24230;BME280;12362;50.004;8.006;2023-01-26T08:04:45;101327.50;;;0.54;100.00
24230;BME280;12362;50.004;8.006;2023-01-26T08:07:11;101332.63;;;0.56;100.00
24230;BME280;12362;50.004;8.006;2023-01-26T08:09:36;101329.25;;;0.57;100.00
24230;BME280;12362;50.004;8.006;2023-01-26T08:12:02;101327.53;;;0.57;100.00
24230;BME280;12362;50.004;8.006;2023-01-26T08:14:28;101318.91;;;0.43;100.00
24230;BME280;12362;50.004;8.006;2023-01-26T08:16:54;101329.06;;;0.36;100.00
24230;BME280;12362;50.004;8.006;2023-01-26T08:19:19;101328.25;;;0.38;100.00
24230;BME280;12362;50.004;8.006;2023-01-26T08:21:45;101323.97;;;0.34;100.00
24230;BME280;12362;50.004;8.006;2023-01-26T08:24:11;101329.03;;;0.31;100.00
24230;BME280;12362;50.004;8.006;2023-01-26T08:26:37;101334.19;;;0.34;100.00
24230;BME280;12362;50.004;8.006;2023-01-26T08:29:02;101330.75;;;0.32;100.00
24230;BME280;12362;50.004;8.006;2023-01-26T08:31:29;101336.72;;;0.36;100.00
24230;BME280;12362;50.004;8.006;2023-01-26T08:33:55;101340.28;;;0.51;100.00
24230;BME280;12362;50.004;8.006;2023-01-26T08:36:21;101343.66;;;0.52;100.00
24230;BME280;12362;50.004;8.006;2023-01-26T08:38:48;101335.94;;;0.44;100.00
24230;BME280;12362;50.004;8.006;2023-01-26T08:41:37;101335.16;;;0.53;100.00
24230;BME280;12362;50.004;8.006;2023-01-26T08:44:24;101340.28;;;0.54;100.00
24230;BME280;12362;50.004;8.006;2023-01-26T08:46:53;101337.78;;;0.59;100.00
24230;BME280;12362;50.004;8.006;2023-01-26T08:49:35;101332.66;;;0.62;100.00
24230;BME280;12362;50.004;8.006;2023-01-26T08:52:15;101329.34;;;0.79;100.00
24230;BME280;12362;50.004;8.006;2023-01-26T08:54:57;101344.59;;;0.61;100.00
24230;BME280;12362;50.004;8.006;2023-01-26T08:57:32;101345.44;;;0.60;100.00
24230;BME280;12362;50.004;8.006;2023-01-26T09:00:08;101336.97;;;0.64;100.00
24230;BME280;12362;50.004;8.006;2023-01-26T09:02:41;101327.66;;;0.77;100.00
24230;BME280;12362;50.004;8.006;2023-01-26T09:05:07;101325.16;;;0.87;100.00
24230;BME280;12362;50.004;8.006;2023-01-26T09:07:32;101325.97;;;0.85;100.00
24230;BME280;12362;50.004;8.006;2023-01-26T09:09:58;101326.84;;;0.87;100.00
24230;BME280;12362;50.004;8.006;2023-01-26T09:12:27;101322.63;;;0.93;100.00
24230;BME280;12362;50.004;8.006;2023-01-26T09:14:56;101325.19;;;1.02;100.00
24230;BME280;12362;50.004;8.006;2023-01-26T09:17:25;101326.94;;;1.06;100.00
24230;BME280;12362;50.004;8.006;2023-01-26T09:19:52;101329.50;;;1.10;100.00
24230;BME280;12362;50.004;8.006;2023-01-26T09:22:45;101330.38;;;1.06;100.00
24230;BME280;12362;50.004;8.006;2023-01-26T09:25:35;101333.69;;;0.95;100.00
24230;BME280;12362;50.004;8.006;2023-01-26T09:28:05;101339.66;;;0.88;100.00
24230;BME280;12362;50.004;8.006;2023-01-26T09:30:34;101340.47;;;0.86;100.00
24230;BME280;12362;50.004;8.006;2023-01-26T09:33:06;101342.19;;;0.85;100.00
24230;BME280;12362;50.004;8.006;2023-01-26T09:35:34;101341.28;;;0.80;100.00
24230;BME280;12362;50.004;8.006;2023-01-26T09:38:03;101332.81;;;0.87;100.00
24230;BME280;12362;50.004;8.006;2023-01-26T09:41:01;101344.69;;;0.84;100.00
24230;BME280;12362;50.004;8.006;2023-01-26T09:43:56;101341.28;;;0.80;100.00
24230;BME280;12362;50.004;8.006;2023-01-26T09:50:20;101337.88;;;0.80;100.00
24230;BME280;12362;50.004;8.006;2023-01-26T09:56:19;101339.72;;;1.06;100.00
24230;BME280;12362;50.004;8.006;2023-01-26T09:59:17;101330.34;;;1.09;100.00
24230;BME280;12362;50.004;8.006;2023-01-26T10:05:00;101326.94;;;1.00;100.00
24230;BME280;12362;50.004;8.006;2023-01-26T10:07:27;101328.63;;;0.98;100.00
24230;BME280;12362;50.004;8.006;2023-01-26T10:09:52;101334.56;;;0.92;100.00
24230;BME280;12362;50.004;8.006;2023-01-26T10:12:27;101322.63;;;0.96;100.00
24230;BME280;12362;50.004;8.006;2023-01-26T10:15:06;101326.81;;;0.81;100.00
24230;BME280;12362;50.004;8.006;2023-01-26T10:17:48;101328.56;;;0.90;100.00
24230;BME280;12362;50.004;8.006;2023-01-26T10:20:46;101313.34;;;1.19;100.00
24230;BME280;12362;50.004;8.006;2023-01-26T10:28:53;101317.72;;;1.57;100.00
24230;BME280;12362;50.004;8.006;2023-01-26T10:31:37;101309.22;;;1.80;100.00
24230;BME280;12362;50.004;8.006;2023-01-26T10:34:25;101304.09;;;1.75;100.00
24230;BME280;12362;50.004;8.006;2023-01-26T10:37:25;101301.53;;;1.60;100.00
24230;BME280;12362;50.004;8.006;2023-01-26T10:40:13;101296.41;;;1.95;100.00
24230;BME280;12362;50.004;8.006;2023-01-26T10:43:09;101296.41;;;1.69;100.00
24230;BME280;12362;50.004;8.006;2023-01-26T10:45:51;101286.19;;;1.72;100.00
24230;BME280;12362;50.004;8.006;2023-01-26T10:48:44;101298.97;;;1.86;100.00
24230;BME280;12362;50.004;8.006;2023-01-26T10:52:15;101293.03;;;2.01;100.00
24230;BME280;12362;50.004;8.006;2023-01-26T10:55:15;101287.88;;;2.20;100.00
24230;BME280;12362;50.004;8.006;2023-01-26T10:58:04;101289.59;;;2.23;100.00
24230;BME280;12362;50.004;8.006;2023-01-26T11:00:42;101294.72;;;2.11;100.00
24230;BME280;12362;50.004;8.006;2023-01-26T11:03:41;101293.88;;;2.00;100.00
24230;BME280;12362;50.004;8.006;2023-01-26T11:06:29;101286.16;;;2.07;100.00
24230;BME280;12362;50.004;8.006;2023-01-26T11:11:58;101259.66;;;2.44;100.00
24230;BME280;12362;50.004;8.006;2023-01-26T11:14:34;101267.38;;;2.26;100.00
24230;BME280;12362;50.004;8.006;2023-01-26T11:17:47;101266.56;;;2.08;100.00
24230;BME280;12362;50.004;8.006;2023-01-26T11:44:32;101223.78;;;2.49;100.00
24230;BME280;12362;50.004;8.006;2023-01-26T11:53:50;101228.81;;;2.71;100.00
24230;BME280;12362;50.004;8.006;2023-01-26T12:00:10;101219.56;;;2.30;100.00
24230;BME280;12362;50.004;8.006;2023-01-26T12:02:41;101211.88;;;2.30;100.00
24230;BME280;12362;50.004;8.006;2023-01-26T12:06:42;101204.13;;;2.49;100.00
24230;BME280;12362;50.004;8.006;2023-01-26T12:08:41;101194.78;;;2.33;100.00
24230;BME280;12362;50.004;8.006;2023-01-26T12:18:00;101194.00;;;2.07;100.00
24230;BME280;12362;50.004;8.006;2023-01-26T12:20:41;101188.91;;;2.01;100.00
24230;BME280;12362;50.004;8.006;2023-01-26T12:26:24;101177.78;;;2.07;100.00
24230;BME280;12362;50.004;8.006;2023-01-26T12:29:16;101171.75;;;2.21;100.00
24230;BME280;12362;50.004;8.006;2023-01-26T12:36:05;101168.31;;;2.27;100.00
24230;BME280;12362;50.004;8.006;2023-01-26T12:39:11;101162.31;;;2.38;100.00
24230;BME280;12362;50.004;8.006;2023-01-26T12:44:59;101162.38;;;2.25;100.00
24230;BME280;12362;50.004;8.006;2023-01-26T12:52:54;101157.06;;;2.67;100.00
24230;BME280;12362;50.004;8.006;2023-01-26T12:55:29;101152.78;;;2.70;100.00
24230;BME280;12362;50.004;8.006;2023-01-26T13:15:33;101137.19;;;3.04;100.00
24230;BME280;12362;50.004;8.006;2023-01-26T13:18:16;101136.25;;;3.17;100.00
24230;BME280;12362;50.004;8.006;2023-01-26T13:20:46;101131.19;;;3.07;100.00
24230;BME280;12362;50.004;8.006;2023-01-26T13:23:37;101136.38;;;2.98;100.00
24230;BME280;12362;50.004;8.006;2023-01-26T13:27:15;101134.66;;;2.98;100.00
24230;BME280;12362;50.004;8.006;2023-01-26T13:29:31;101134.69;;;2.95;100.00
24230;BME280;12362;50.004;8.006;2023-01-26T13:35:12;101135.66;;;2.78;100.00
24230;BME280;12362;50.004;8.006;2023-01-26T13:41:01;101145.03;;;2.82;100.00
24230;BME280;12362;50.004;8.006;2023-01-26T13:46:25;101138.28;;;2.62;100.00
24230;BME280;12362;50.004;8.006;2023-01-26T13:48:54;101138.16;;;2.90;100.00
24230;BME280;12362;50.004;8.006;2023-01-26T13:51:26;101132.13;;;2.95;100.00
24230;BME280;12362;50.004;8.006;2023-01-26T13:54:12;101141.53;;;2.95;100.00
24230;BME280;12362;50.004;8.006;2023-01-26T13:59:58;101139.66;;;3.15;100.00
24230;BME280;12362;50.004;8.006;2023-01-26T14:02:34;101151.84;;;2.86;100.00
24230;BME280;12362;50.004;8.006;2023-01-26T14:05:01;101156.91;;;2.92;100.00
24230;BME280;12362;50.004;8.006;2023-01-26T14:07:31;101157.78;;;2.91;100.00
24230;BME280;12362;50.004;8.006;2023-01-26T14:09:59;101155.25;;;2.85;100.00
24230;BME280;12362;50.004;8.006;2023-01-26T14:15:03;101162.97;;;2.83;100.00
24230;BME280;12362;50.004;8.006;2023-01-26T14:17:34;101163.03;;;2.68;100.00
24230;BME280;12362;50.004;8.006;2023-01-26T14:20:15;101173.38;;;2.46;100.00
24230;BME280;12362;50.004;8.006;2023-01-26T14:22:42;101172.63;;;2.26;100.00
24230;BME280;12362;50.004;8.006;2023-01-26T14:25:09;101178.56;;;2.36;100.00
24230;BME280;12362;50.004;8.006;2023-01-26T14:27:37;101174.25;;;2.44;100.00
24230;BME280;12362;50.004;8.006;2023-01-26T14:32:46;101169.94;;;2.58;100.00
24230;BME280;12362;50.004;8.006;2023-01-26T14:35:19;101172.50;;;2.58;100.00
24230;BME280;12362;50.004;8.006;2023-01-26T14:37:47;101175.94;;;2.51;100.00
24230;BME280;12362;50.004;8.006;2023-01-26T14:40:22;101174.25;;;2.45;100.00
24230;BME280;12362;50.004;8.006;2023-01-26T14:42:51;101179.38;;;2.47;100.00
24230;BME280;12362;50.004;8.006;2023-01-26T14:45:29;101182.69;;;2.74;100.00
24230;BME280;12362;50.004;8.006;2023-01-26T14:48:13;101178.28;;;2.91;100.00
24230;BME280;12362;50.004;8.006;2023-01-26T14:50:59;101176.66;;;2.79;100.00
24230;BME280;12362;50.004;8.006;2023-01-26T14:53:27;101174.22;;;2.54;100.00
24230;BME280;12362;50.004;8.006;2023-01-26T14:55:52;101169.91;;;2.56;100.00
24230;BME280;12362;50.004;8.006;2023-01-26T14:58:26;101173.31;;;2.68;100.00
24230;BME280;12362;50.004;8.006;2023-01-26T15:00:52;101180.84;;;2.97;100.00
24230;BME280;12362;50.004;8.006;2023-01-26T15:03:27;101174.94;;;2.78;100.00
24230;BME280;12362;50.004;8.006;2023-01-26T15:06:26;101173.38;;;2.46;100.00
24230;BME280;12362;50.004;8.006;2023-01-26T15:09:13;101179.44;;;2.21;100.00
24230;BME280;12362;50.004;8.006;2023-01-26T15:11:51;101175.22;;;2.07;100.00
24230;BME280;12362;50.004;8.006;2023-01-26T15:14:48;101171.78;;;2.12;100.00
24230;BME280;12362;50.004;8.006;2023-01-26T15:19:54;101166.53;;;2.50;100.00
24230;BME280;12362;50.004;8.006;2023-01-26T15:22:23;101164.69;;;2.78;100.00
24230;BME280;12362;50.004;8.006;2023-01-26T15:25:17;101162.97;;;2.82;100.00
24230;BME280;12362;50.004;8.006;2023-01-26T15:28:04;101169.00;;;2.78;100.00